Time;durP1;ratioP1;P1;durP2;ratioP2;P2;SDS_P1;SDS_P2;PMS_P1;PMS_P2;Temp;Humidity;BMP_temperature;BMP_pressure;BME280_temperature;BME280_humidity;BME280_pressure;Samples;Min_cycle;Max_cycle;Signal;HPM_P1;HPM_P2
2021/12/11 00:01:37;;;;;;;;;;;2.00;99.90;;;;;;5033861;28;19905;-78
2021/12/11 00:04:06;;;;;;;;;;;2.00;99.90;;;;;;5033968;28;20012;-78
2021/12/11 00:06:58;;;;;;;;;;;2.00;99.90;;;;;;5015974;28;19944;-77
2021/12/11 00:09:26;;;;;;;;;;;2.00;99.90;;;;;;5014014;28;20007;-78
2021/12/11 00:11:54;;;;;;;;;;;2.00;99.90;;;;;;5033605;28;19913;-79
2021/12/11 00:14:21;;;;;;;;;;;2.00;99.90;;;;;;5033770;28;19912;-78
2021/12/11 00:16:47;;;;;;;;;;;2.00;99.90;;;;;;5015876;28;19912;-77
2021/12/11 00:19:14;;;;;;;;;;;2.00;99.90;;;;;;5033654;28;19905;-77
2021/12/11 00:21:41;;;;;;;;;;;2.00;99.90;;;;;;5033548;28;19959;-78
2021/12/11 00:24:11;;;;;;;;;;;1.90;99.90;;;;;;5033097;28;19915;-78
2021/12/11 00:26:38;;;;;;;;;;;2.00;99.90;;;;;;5033306;28;19940;-78
2021/12/11 00:29:05;;;;;;;;;;;2.00;99.90;;;;;;5015886;28;19911;-78
2021/12/11 00:31:31;;;;;;;;;;;2.00;99.90;;;;;;5033348;28;19948;-78
2021/12/11 00:33:57;;;;;;;;;;;2.00;99.90;;;;;;5032994;28;20296;-78
2021/12/11 00:36:24;;;;;;;;;;;1.90;99.90;;;;;;5032200;28;19905;-78
2021/12/11 00:38:50;;;;;;;;;;;1.90;99.90;;;;;;5033201;28;20424;-78
2021/12/11 00:41:18;;;;;;;;;;;1.90;99.90;;;;;;5033116;28;19951;-78
2021/12/11 00:43:44;;;;;;;;;;;1.90;99.90;;;;;;5033157;28;20015;-78
2021/12/11 00:46:12;;;;;;;;;;;1.90;99.90;;;;;;5032917;28;20368;-78
2021/12/11 00:48:38;;;;;;;;;;;1.90;99.90;;;;;;5033119;28;19951;-78
2021/12/11 00:51:06;;;;;;;;;;;2.00;99.90;;;;;;5032888;28;19905;-78
2021/12/11 00:53:37;;;;;;;;;;;2.00;99.90;;;;;;5032972;28;19905;-78
2021/12/11 00:56:08;;;;;;;;;;;2.00;99.90;;;;;;5032699;28;19909;-78
2021/12/11 00:58:35;;;;;;;;;;;2.00;99.90;;;;;;5032881;28;19905;-78
2021/12/11 01:01:09;;;;;;;;;;;1.90;99.90;;;;;;5014976;28;19916;-77
2021/12/11 01:03:44;;;;;;;;;;;2.00;99.90;;;;;;5032722;28;19904;-78
2021/12/11 01:06:12;;;;;;;;;;;1.90;99.90;;;;;;5032572;28;19909;-78
2021/12/11 01:08:40;;;;;;;;;;;1.90;99.90;;;;;;5032701;28;19912;-78
2021/12/11 01:11:14;;;;;;;;;;;2.00;99.90;;;;;;5032547;28;19920;-77
2021/12/11 01:13:46;;;;;;;;;;;1.90;99.90;;;;;;5031387;28;20278;-78
2021/12/11 01:16:14;;;;;;;;;;;1.90;99.90;;;;;;5031105;28;19905;-77
2021/12/11 01:18:42;;;;;;;;;;;1.90;99.90;;;;;;5032592;28;19917;-78
2021/12/11 01:21:43;;;;;;;;;;;1.90;99.90;;;;;;5032516;28;19905;-78
2021/12/11 01:24:31;;;;;;;;;;;1.90;99.90;;;;;;5014969;28;19909;-77
2021/12/11 01:26:59;;;;;;;;;;;1.90;99.90;;;;;;5031169;28;19971;-77
2021/12/11 01:29:25;;;;;;;;;;;1.80;99.90;;;;;;5032485;28;19905;-78
2021/12/11 01:31:52;;;;;;;;;;;1.90;99.90;;;;;;5014779;28;19905;-78
2021/12/11 01:34:18;;;;;;;;;;;1.90;99.90;;;;;;5032031;28;19912;-78
2021/12/11 01:36:43;;;;;;;;;;;1.90;99.90;;;;;;5032179;28;19912;-78
2021/12/11 01:39:14;;;;;;;;;;;1.90;99.90;;;;;;5032310;28;19913;-78
2021/12/11 01:41:40;;;;;;;;;;;1.90;99.90;;;;;;5032313;28;19909;-77
2021/12/11 01:44:09;;;;;;;;;;;1.90;99.90;;;;;;5032251;28;19909;-77
2021/12/11 01:46:35;;;;;;;;;;;1.80;99.90;;;;;;5032104;28;19951;-78
2021/12/11 01:49:07;;;;;;;;;;;1.90;99.90;;;;;;5032310;28;20013;-78
2021/12/11 01:51:39;;;;;;;;;;;1.90;99.90;;;;;;5032271;28;19905;-78
2021/12/11 01:54:16;;;;;;;;;;;1.90;99.90;;;;;;5032180;28;20277;-78
2021/12/11 01:56:43;;;;;;;;;;;1.90;99.90;;;;;;4997976;28;20427;-78
2021/12/11 01:59:11;;;;;;;;;;;2.00;99.90;;;;;;5014443;28;19905;-77
2021/12/11 02:01:39;;;;;;;;;;;1.90;99.90;;;;;;5032099;28;20372;-77
2021/12/11 02:04:07;;;;;;;;;;;1.90;99.90;;;;;;5032097;28;19995;-77
2021/12/11 02:06:35;;;;;;;;;;;1.90;99.90;;;;;;5030567;28;19912;-78
2021/12/11 02:09:16;;;;;;;;;;;1.80;99.90;;;;;;5030734;28;20063;-77
2021/12/11 02:11:42;;;;;;;;;;;1.80;99.90;;;;;;5032001;28;20284;-77
2021/12/11 02:14:09;;;;;;;;;;;1.80;99.90;;;;;;5034460;28;19944;-78
2021/12/11 02:16:45;;;;;;;;;;;1.90;99.90;;;;;;5035728;28;19905;-77
2021/12/11 02:19:16;;;;;;;;;;;1.90;99.90;;;;;;5018289;28;19905;-77
2021/12/11 02:21:46;;;;;;;;;;;1.90;99.90;;;;;;5035805;28;19905;-78
2021/12/11 02:24:15;;;;;;;;;;;1.90;99.90;;;;;;5035677;28;19909;-78
2021/12/11 02:26:42;;;;;;;;;;;2.00;99.90;;;;;;5035617;28;19905;-78
2021/12/11 02:29:13;;;;;;;;;;;1.90;99.90;;;;;;5018119;28;20276;-78
2021/12/11 02:31:42;;;;;;;;;;;2.00;99.90;;;;;;5017931;28;19905;-78
2021/12/11 02:34:15;;;;;;;;;;;2.00;99.90;;;;;;5035304;28;20353;-77
2021/12/11 02:36:41;;;;;;;;;;;2.00;99.90;;;;;;5035406;28;20535;-78
2021/12/11 02:39:19;;;;;;;;;;;2.00;99.90;;;;;;5017798;28;19912;-77
2021/12/11 02:41:51;;;;;;;;;;;1.90;99.90;;;;;;5035504;28;19952;-77
2021/12/11 02:44:19;;;;;;;;;;;1.90;99.90;;;;;;5017779;28;19967;-78
2021/12/11 02:46:52;;;;;;;;;;;1.90;99.90;;;;;;5035166;28;19905;-78
2021/12/11 02:49:24;;;;;;;;;;;1.90;99.90;;;;;;5035330;28;19951;-78
2021/12/11 02:52:10;;;;;;;;;;;1.90;99.90;;;;;;5035141;28;19916;-77
2021/12/11 02:54:39;;;;;;;;;;;1.90;99.90;;;;;;5034799;28;20273;-78
2021/12/11 02:57:08;;;;;;;;;;;1.90;99.90;;;;;;5033776;28;20341;-78
2021/12/11 02:59:40;;;;;;;;;;;2.00;99.90;;;;;;5035085;28;20345;-77
2021/12/11 03:02:11;;;;;;;;;;;2.00;99.90;;;;;;5035174;28;19953;-77
2021/12/11 03:04:44;;;;;;;;;;;1.90;99.90;;;;;;5034954;28;19960;-77
2021/12/11 03:07:12;;;;;;;;;;;1.90;99.90;;;;;;5034831;28;19909;-77
2021/12/11 03:09:40;;;;;;;;;;;1.80;99.90;;;;;;5017383;28;20365;-78
2021/12/11 03:12:07;;;;;;;;;;;1.80;99.90;;;;;;5033603;28;19916;-77
2021/12/11 03:14:33;;;;;;;;;;;1.90;99.90;;;;;;5033654;28;19905;-78
2021/12/11 03:16:59;;;;;;;;;;;1.90;99.90;;;;;;5034666;28;19904;-78
2021/12/11 03:19:25;;;;;;;;;;;1.90;99.90;;;;;;5104802;22;19904;-75
2021/12/11 03:21:53;;;;;;;;;;;1.90;99.90;;;;;;4994590;28;19941;-75
2021/12/11 03:24:19;;;;;;;;;;;1.90;99.90;;;;;;4993955;28;19948;-74
2021/12/11 03:26:46;;;;;;;;;;;2.00;99.90;;;;;;4977652;28;19941;-74
2021/12/11 03:29:12;;;;;;;;;;;1.90;99.90;;;;;;4994083;28;20364;-75
2021/12/11 03:31:39;;;;;;;;;;;1.90;99.90;;;;;;4995147;28;19906;-75
2021/12/11 03:34:06;;;;;;;;;;;1.90;99.90;;;;;;4993998;28;20377;-74
2021/12/11 03:36:33;;;;;;;;;;;1.80;99.90;;;;;;4977334;28;19928;-75
2021/12/11 03:39:00;;;;;;;;;;;1.90;99.90;;;;;;4995069;28;19952;-75
2021/12/11 03:41:27;;;;;;;;;;;1.90;99.90;;;;;;4995057;28;20312;-75
2021/12/11 03:43:52;;;;;;;;;;;1.90;99.90;;;;;;4993912;28;19941;-75
2021/12/11 03:46:19;;;;;;;;;;;2.00;99.90;;;;;;4993292;28;20327;-75
2021/12/11 03:48:46;;;;;;;;;;;2.00;99.90;;;;;;4993590;28;19912;-76
2021/12/11 03:51:13;;;;;;;;;;;2.00;99.90;;;;;;4993445;28;20258;-75
2021/12/11 03:53:40;;;;;;;;;;;2.00;99.90;;;;;;4994820;28;19910;-74
2021/12/11 03:56:08;;;;;;;;;;;2.00;99.90;;;;;;4993444;28;19905;-75
2021/12/11 03:58:34;;;;;;;;;;;2.00;99.90;;;;;;4993569;28;19909;-75
2021/12/11 04:01:06;;;;;;;;;;;2.00;99.90;;;;;;4994449;28;19929;-74
2021/12/11 04:03:32;;;;;;;;;;;2.00;99.90;;;;;;4977431;28;20300;-74
2021/12/11 04:05:59;;;;;;;;;;;2.00;99.90;;;;;;4993149;28;19960;-75
2021/12/11 04:08:27;;;;;;;;;;;2.00;99.90;;;;;;4993273;28;19910;-75
2021/12/11 04:10:52;;;;;;;;;;;1.90;99.90;;;;;;4993108;28;19945;-75
2021/12/11 04:13:18;;;;;;;;;;;2.00;99.90;;;;;;4977016;28;20370;-75
2021/12/11 04:15:46;;;;;;;;;;;2.00;99.90;;;;;;4992934;28;19952;-75
2021/12/11 04:18:12;;;;;;;;;;;2.00;99.90;;;;;;4977033;28;19906;-75
2021/12/11 04:20:40;;;;;;;;;;;2.10;99.90;;;;;;4994047;28;20396;-74
2021/12/11 04:23:07;;;;;;;;;;;2.10;99.90;;;;;;4994253;28;19952;-73
2021/12/11 04:25:33;;;;;;;;;;;2.00;99.90;;;;;;4992616;28;19996;-72
2021/12/11 04:27:59;;;;;;;;;;;2.00;99.90;;;;;;4976663;28;19906;-73
2021/12/11 04:30:25;;;;;;;;;;;2.10;99.90;;;;;;4976486;28;19968;-72
2021/12/11 04:32:52;;;;;;;;;;;2.00;99.90;;;;;;4992908;28;19977;-75
2021/12/11 04:35:18;;;;;;;;;;;1.90;99.90;;;;;;4992843;28;19913;-76
2021/12/11 04:37:44;;;;;;;;;;;1.90;99.90;;;;;;4992468;28;20067;-75
2021/12/11 04:40:12;;;;;;;;;;;1.80;99.90;;;;;;4976446;28;19949;-75
2021/12/11 04:45:05;;;;;;;;;;;1.90;99.90;;;;;;4993676;28;19916;-74
2021/12/11 04:47:54;;;;;;;;;;;1.90;99.90;;;;;;4993694;28;19905;-75
2021/12/11 04:50:29;;;;;;;;;;;2.00;99.90;;;;;;4992369;28;20439;-75
2021/12/11 04:52:56;;;;;;;;;;;1.90;99.90;;;;;;4993707;28;19909;-74
2021/12/11 04:58:09;;;;;;;;;;;2.00;99.90;;;;;;4993567;28;19917;-75
2021/12/11 05:11:14;;;;;;;;;;;1.90;99.90;;;;;;4992192;28;19953;-74
2021/12/11 05:13:40;;;;;;;;;;;1.90;99.90;;;;;;4993460;28;20031;-73
2021/12/11 05:16:08;;;;;;;;;;;2.00;99.90;;;;;;4992071;28;20321;-72
2021/12/11 05:18:35;;;;;;;;;;;2.00;99.90;;;;;;4992028;28;19905;-76
2021/12/11 05:21:06;;;;;;;;;;;2.00;99.90;;;;;;4993173;28;19992;-72
2021/12/11 05:23:31;;;;;;;;;;;1.90;99.90;;;;;;4993362;28;19913;-73
2021/12/11 05:25:57;;;;;;;;;;;1.90;99.90;;;;;;4991797;28;20445;-73
2021/12/11 05:28:23;;;;;;;;;;;1.90;99.90;;;;;;4993458;28;19913;-73
2021/12/11 05:30:49;;;;;;;;;;;2.00;99.90;;;;;;4993136;28;19956;-73
2021/12/11 05:33:16;;;;;;;;;;;2.00;99.90;;;;;;4991974;28;19905;-73
2021/12/11 05:35:42;;;;;;;;;;;2.00;99.90;;;;;;4993047;28;19975;-73
2021/12/11 05:38:09;;;;;;;;;;;1.90;99.90;;;;;;4991830;28;19913;-71
2021/12/11 05:40:36;;;;;;;;;;;2.00;99.90;;;;;;4993064;28;19910;-73
2021/12/11 05:43:03;;;;;;;;;;;1.90;99.90;;;;;;4993079;28;19906;-73
2021/12/11 05:45:28;;;;;;;;;;;2.00;99.90;;;;;;4975363;28;20000;-73
2021/12/11 05:47:54;;;;;;;;;;;2.00;99.90;;;;;;4993348;28;20436;-72
2021/12/11 05:50:23;;;;;;;;;;;2.00;99.90;;;;;;4995636;28;20307;-72
2021/12/11 05:52:50;;;;;;;;;;;1.90;99.90;;;;;;4997061;28;19906;-73
2021/12/11 05:55:18;;;;;;;;;;;1.90;99.90;;;;;;4979565;28;19957;-73
2021/12/11 05:57:51;;;;;;;;;;;1.90;99.90;;;;;;4996925;28;19906;-73
2021/12/11 06:00:17;;;;;;;;;;;2.00;99.90;;;;;;4995646;28;19952;-73
2021/12/11 06:02:43;;;;;;;;;;;2.00;99.90;;;;;;4995676;28;20448;-73
2021/12/11 06:05:08;;;;;;;;;;;1.90;99.90;;;;;;4995328;28;20009;-72
2021/12/11 06:07:35;;;;;;;;;;;1.90;99.90;;;;;;4995409;28;19910;-73
2021/12/11 06:10:05;;;;;;;;;;;1.90;99.90;;;;;;4996711;28;19905;-73
2021/12/11 06:12:30;;;;;;;;;;;2.00;99.90;;;;;;4996556;28;20328;-73
2021/12/11 06:14:57;;;;;;;;;;;1.90;99.90;;;;;;4997117;28;19949;-73
2021/12/11 06:17:24;;;;;;;;;;;2.00;99.90;;;;;;4979057;28;19965;-73
2021/12/11 06:19:52;;;;;;;;;;;2.00;99.90;;;;;;4996410;28;19909;-73
2021/12/11 06:22:20;;;;;;;;;;;1.90;99.90;;;;;;4995166;28;19913;-74
2021/12/11 06:24:45;;;;;;;;;;;2.00;99.90;;;;;;4995168;28;19909;-73
2021/12/11 06:27:11;;;;;;;;;;;2.00;99.90;;;;;;4978804;28;20376;-73
2021/12/11 06:29:37;;;;;;;;;;;1.90;99.90;;;;;;4994544;28;19909;-74
2021/12/11 06:32:03;;;;;;;;;;;1.90;99.90;;;;;;4990394;28;19967;-73
2021/12/11 06:34:29;;;;;;;;;;;1.80;99.90;;;;;;4990196;28;19996;-73
2021/12/11 06:36:54;;;;;;;;;;;1.70;99.90;;;;;;4996062;28;19905;-73
2021/12/11 06:39:22;;;;;;;;;;;1.80;99.90;;;;;;4996148;28;19910;-73
2021/12/11 06:41:50;;;;;;;;;;;1.80;99.90;;;;;;4994865;28;19909;-72
2021/12/11 06:44:16;;;;;;;;;;;1.70;99.90;;;;;;4978362;28;19961;-72
2021/12/11 06:46:42;;;;;;;;;;;1.80;99.90;;;;;;5011664;28;19983;-72
2021/12/11 06:49:08;;;;;;;;;;;1.80;99.90;;;;;;4995992;28;19913;-72
2021/12/11 06:51:34;;;;;;;;;;;1.70;99.90;;;;;;4995998;28;19906;-73
2021/12/11 06:54:02;;;;;;;;;;;1.70;99.90;;;;;;4995862;28;19956;-73
2021/12/11 06:56:28;;;;;;;;;;;1.70;99.90;;;;;;4978010;28;19913;-74
2021/12/11 06:58:54;;;;;;;;;;;1.80;99.90;;;;;;4994021;28;20401;-73
2021/12/11 07:01:21;;;;;;;;;;;1.80;99.90;;;;;;4995683;28;19916;-72
2021/12/11 07:03:47;;;;;;;;;;;1.80;99.90;;;;;;4995745;28;19909;-72
2021/12/11 07:06:12;;;;;;;;;;;1.80;99.90;;;;;;4995604;28;19960;-73
2021/12/11 07:08:39;;;;;;;;;;;1.70;99.90;;;;;;4994422;28;19905;-73
2021/12/11 07:11:06;;;;;;;;;;;1.80;99.90;;;;;;4995457;28;19905;-73
2021/12/11 07:13:31;;;;;;;;;;;1.80;99.90;;;;;;4995563;28;20365;-74
2021/12/11 07:15:58;;;;;;;;;;;1.70;99.90;;;;;;5010392;28;19916;-73
2021/12/11 07:18:25;;;;;;;;;;;1.70;99.90;;;;;;4995492;28;19941;-73
2021/12/11 07:20:51;;;;;;;;;;;1.70;99.90;;;;;;4995203;28;20343;-73
2021/12/11 07:23:17;;;;;;;;;;;1.70;99.90;;;;;;4995483;28;20049;-72
2021/12/11 07:25:45;;;;;;;;;;;1.80;99.90;;;;;;4977475;28;19910;-72
2021/12/11 07:28:11;;;;;;;;;;;1.80;99.90;;;;;;4993902;28;20392;-72
2021/12/11 07:30:40;;;;;;;;;;;1.80;99.90;;;;;;4994021;28;19913;-72
2021/12/11 07:33:06;;;;;;;;;;;1.70;99.90;;;;;;4994025;28;20284;-73
2021/12/11 07:35:33;;;;;;;;;;;1.70;99.90;;;;;;4993876;28;19914;-74
2021/12/11 07:37:59;;;;;;;;;;;1.70;99.90;;;;;;4993872;28;19906;-73
2021/12/11 07:40:26;;;;;;;;;;;1.80;99.90;;;;;;4993651;28;19910;-74
2021/12/11 07:42:52;;;;;;;;;;;1.90;99.90;;;;;;4977575;28;19912;-73
2021/12/11 07:45:18;;;;;;;;;;;1.80;99.90;;;;;;4977359;28;20354;-73
2021/12/11 07:47:44;;;;;;;;;;;1.90;99.90;;;;;;4993576;28;19921;-73
2021/12/11 07:50:10;;;;;;;;;;;1.90;99.90;;;;;;4994817;28;19909;-73
2021/12/11 07:52:36;;;;;;;;;;;1.90;99.90;;;;;;4993407;28;19906;-74
2021/12/11 07:55:03;;;;;;;;;;;1.90;99.90;;;;;;4975125;28;19976;-73
2021/12/11 07:57:28;;;;;;;;;;;1.90;99.90;;;;;;4991669;28;19912;-73
2021/12/11 07:59:54;;;;;;;;;;;2.00;99.90;;;;;;4992042;28;20358;-73
2021/12/11 08:02:20;;;;;;;;;;;2.10;99.90;;;;;;4993674;28;20000;-73
2021/12/11 08:04:45;;;;;;;;;;;2.00;99.90;;;;;;4992532;28;20380;-74
2021/12/11 08:07:11;;;;;;;;;;;1.90;99.90;;;;;;4994344;28;19906;-73
2021/12/11 08:09:37;;;;;;;;;;;2.00;99.90;;;;;;4977270;28;19909;-73
2021/12/11 08:12:04;;;;;;;;;;;2.10;99.90;;;;;;4992451;28;19956;-73
2021/12/11 08:14:29;;;;;;;;;;;2.10;99.90;;;;;;4977047;28;19910;-73
2021/12/11 08:16:58;;;;;;;;;;;2.10;99.90;;;;;;4977078;28;19910;-73
2021/12/11 08:19:25;;;;;;;;;;;2.10;99.90;;;;;;4992850;28;19906;-73
2021/12/11 08:21:53;;;;;;;;;;;2.10;99.90;;;;;;4981553;28;19980;-73
2021/12/11 08:24:19;;;;;;;;;;;2.10;99.90;;;;;;4992883;28;19914;-73
2021/12/11 08:26:45;;;;;;;;;;;2.10;99.90;;;;;;4974859;28;19906;-73
2021/12/11 08:29:12;;;;;;;;;;;2.00;99.90;;;;;;4973470;28;19906;-73
2021/12/11 08:31:39;;;;;;;;;;;2.10;99.90;;;;;;4973606;28;19945;-74
2021/12/11 08:34:05;;;;;;;;;;;2.10;99.90;;;;;;4983303;28;19905;-72
2021/12/11 08:36:31;;;;;;;;;;;2.10;99.90;;;;;;4993968;28;19981;-74
2021/12/11 08:38:59;;;;;;;;;;;2.10;99.90;;;;;;4992910;28;19948;-72
2021/12/11 08:41:27;;;;;;;;;;;2.20;99.90;;;;;;4976706;28;19906;-74
2021/12/11 08:43:59;;;;;;;;;;;2.20;99.90;;;;;;4975727;28;20155;-74
2021/12/11 08:46:27;;;;;;;;;;;2.20;99.90;;;;;;4993990;28;20376;-74
2021/12/11 08:48:55;;;;;;;;;;;2.10;99.90;;;;;;4992490;28;20432;-73
2021/12/11 08:51:26;;;;;;;;;;;2.00;99.90;;;;;;4993745;28;20358;-73
2021/12/11 08:53:52;;;;;;;;;;;2.10;99.90;;;;;;4993702;28;19913;-73
2021/12/11 08:56:19;;;;;;;;;;;2.00;99.90;;;;;;4991503;28;20305;-73
2021/12/11 08:58:45;;;;;;;;;;;2.00;99.90;;;;;;4993973;28;19913;-73
2021/12/11 09:01:40;;;;;;;;;;;2.10;99.90;;;;;;5005867;28;19914;-76
2021/12/11 09:04:10;;;;;;;;;;;2.00;99.90;;;;;;4984446;28;20353;-76
2021/12/11 09:06:36;;;;;;;;;;;2.00;99.90;;;;;;4992426;28;20005;-76
2021/12/11 09:09:17;;;;;;;;;;;2.10;99.90;;;;;;5007928;28;19992;-76
2021/12/11 09:11:46;;;;;;;;;;;2.10;99.90;;;;;;4992221;28;19913;-73
2021/12/11 09:14:21;;;;;;;;;;;2.10;99.90;;;;;;4976420;28;20281;-73
2021/12/11 09:16:52;;;;;;;;;;;2.20;99.90;;;;;;4995205;28;19905;-74
2021/12/11 09:19:24;;;;;;;;;;;2.10;99.90;;;;;;4995769;28;19909;-73
2021/12/11 09:22:10;;;;;;;;;;;2.10;99.90;;;;;;4992513;28;20362;-74
2021/12/11 09:24:40;;;;;;;;;;;2.10;99.90;;;;;;4986961;28;19910;-74
2021/12/11 09:27:16;;;;;;;;;;;2.20;99.90;;;;;;4992371;28;19906;-74
2021/12/11 09:29:51;;;;;;;;;;;2.20;99.90;;;;;;4976444;28;19906;-73
2021/12/11 09:32:20;;;;;;;;;;;2.20;99.90;;;;;;4991946;28;19960;-74
2021/12/11 09:35:06;;;;;;;;;;;2.10;99.90;;;;;;4994130;28;19905;-74
2021/12/11 09:37:32;;;;;;;;;;;2.20;99.90;;;;;;4991272;28;19915;-74
2021/12/11 09:40:00;;;;;;;;;;;2.30;99.90;;;;;;4992495;28;20429;-74
2021/12/11 09:42:26;;;;;;;;;;;2.30;99.90;;;;;;5019780;23;20300;-77
2021/12/11 09:44:53;;;;;;;;;;;2.30;99.90;;;;;;5032081;28;19909;-76
2021/12/11 09:47:25;;;;;;;;;;;2.30;99.90;;;;;;5032189;28;19959;-75
2021/12/11 09:49:58;;;;;;;;;;;2.20;99.90;;;;;;5032267;28;19909;-75
2021/12/11 09:52:24;;;;;;;;;;;1.90;99.90;;;;;;5032185;28;19927;-76
2021/12/11 09:54:55;;;;;;;;;;;2.00;99.90;;;;;;5004439;28;19993;-76
2021/12/11 09:57:22;;;;;;;;;;;2.10;99.90;;;;;;4994396;28;19906;-77
2021/12/11 09:59:50;;;;;;;;;;;2.20;99.90;;;;;;4994084;28;19909;-76
2021/12/11 10:02:24;;;;;;;;;;;2.20;99.90;;;;;;4994604;28;19909;-76
2021/12/11 10:04:59;;;;;;;;;;;2.20;99.90;;;;;;4977778;28;19956;-76
2021/12/11 10:07:32;;;;;;;;;;;2.10;99.90;;;;;;5003307;28;19921;-77
2021/12/11 10:10:05;;;;;;;;;;;2.30;99.90;;;;;;5021173;28;19956;-77
2021/12/11 10:12:33;;;;;;;;;;;2.30;99.90;;;;;;5014365;28;19913;-77
2021/12/11 10:15:02;;;;;;;;;;;2.30;99.90;;;;;;5016771;28;19931;-78
2021/12/11 10:17:36;;;;;;;;;;;2.40;99.90;;;;;;5012170;28;19906;-77
2021/12/11 10:20:04;;;;;;;;;;;2.10;99.90;;;;;;5009536;28;20000;-77
2021/12/11 10:22:32;;;;;;;;;;;2.20;99.90;;;;;;5009965;28;19998;-78
2021/12/11 10:24:58;;;;;;;;;;;2.20;99.90;;;;;;5020639;28;20265;-77
2021/12/11 10:27:26;;;;;;;;;;;2.00;99.90;;;;;;4992831;28;19906;-76
2021/12/11 10:29:52;;;;;;;;;;;2.10;99.90;;;;;;4994375;28;19913;-78
2021/12/11 10:32:22;;;;;;;;;;;2.10;99.90;;;;;;4993988;28;19910;-78
2021/12/11 10:34:49;;;;;;;;;;;2.20;99.90;;;;;;5013639;28;19993;-78
2021/12/11 10:37:28;;;;;;;;;;;2.30;99.90;;;;;;5008138;28;19910;-77
2021/12/11 10:39:55;;;;;;;;;;;2.10;99.90;;;;;;4996080;28;19906;-77
2021/12/11 10:42:20;;;;;;;;;;;2.20;99.90;;;;;;4995827;28;19913;-77
2021/12/11 10:44:48;;;;;;;;;;;2.30;99.90;;;;;;4978398;28;19910;-77
2021/12/11 10:47:18;;;;;;;;;;;2.30;99.90;;;;;;4978346;28;19905;-77
2021/12/11 10:49:44;;;;;;;;;;;2.40;99.90;;;;;;4995797;28;19906;-76
2021/12/11 10:52:15;;;;;;;;;;;2.40;99.90;;;;;;4962405;28;19906;-77
2021/12/11 10:54:42;;;;;;;;;;;2.30;99.90;;;;;;4978421;28;19945;-77
2021/12/11 10:57:08;;;;;;;;;;;2.30;99.90;;;;;;4995626;28;19910;-77
2021/12/11 10:59:37;;;;;;;;;;;2.30;99.90;;;;;;4978314;28;19905;-77
2021/12/11 11:02:05;;;;;;;;;;;2.30;99.90;;;;;;4962200;28;20380;-77
2021/12/11 11:04:33;;;;;;;;;;;2.50;99.90;;;;;;4978147;28;19917;-77
2021/12/11 11:07:01;;;;;;;;;;;2.40;99.90;;;;;;4995523;28;19913;-77
2021/12/11 11:09:27;;;;;;;;;;;2.30;99.90;;;;;;4995722;28;20424;-77
2021/12/11 11:11:54;;;;;;;;;;;2.40;99.90;;;;;;4978069;28;20358;-77
2021/12/11 11:14:20;;;;;;;;;;;2.50;99.90;;;;;;4995596;28;19912;-77
2021/12/11 11:16:52;;;;;;;;;;;2.70;99.90;;;;;;4995300;28;19906;-77
2021/12/11 11:19:19;;;;;;;;;;;2.70;99.90;;;;;;4978030;28;20323;-77
2021/12/11 11:21:47;;;;;;;;;;;2.70;99.90;;;;;;5000345;28;20365;-77
2021/12/11 11:24:13;;;;;;;;;;;2.80;99.90;;;;;;5013534;28;19948;-77
2021/12/11 11:26:43;;;;;;;;;;;2.70;99.90;;;;;;5031661;28;19944;-77
2021/12/11 11:29:10;;;;;;;;;;;2.60;99.90;;;;;;4996048;28;19921;-77
2021/12/11 11:31:37;;;;;;;;;;;2.70;99.90;;;;;;4961455;28;20005;-77
2021/12/11 11:34:05;;;;;;;;;;;2.70;99.90;;;;;;4977982;28;20447;-76
2021/12/11 11:36:32;;;;;;;;;;;2.60;99.90;;;;;;5024868;28;19940;-77
2021/12/11 11:38:59;;;;;;;;;;;2.70;99.90;;;;;;5020123;28;20180;-76
2021/12/11 11:41:29;;;;;;;;;;;2.80;99.90;;;;;;5034103;28;19951;-76
2021/12/11 11:43:54;;;;;;;;;;;2.80;99.90;;;;;;5022805;28;19909;-76
2021/12/11 11:46:22;;;;;;;;;;;2.80;99.90;;;;;;4996025;28;19975;-76
2021/12/11 11:48:49;;;;;;;;;;;2.60;99.90;;;;;;4996006;28;19916;-76
2021/12/11 11:51:17;;;;;;;;;;;2.60;99.90;;;;;;5014252;28;19971;-76
2021/12/11 11:53:43;;;;;;;;;;;2.60;99.90;;;;;;5014408;28;19912;-76
2021/12/11 11:56:11;;;;;;;;;;;2.60;99.90;;;;;;5014198;28;19905;-76
2021/12/11 11:58:37;;;;;;;;;;;2.60;99.90;;;;;;4997146;28;19913;-76
2021/12/11 12:01:23;;;;;;;;;;;2.50;99.90;;;;;;4996788;28;20368;-77
2021/12/11 12:03:49;;;;;;;;;;;2.60;99.90;;;;;;4996774;28;19905;-76
2021/12/11 12:06:21;;;;;;;;;;;2.60;99.90;;;;;;4996698;28;19912;-77
2021/12/11 12:08:47;;;;;;;;;;;2.60;99.90;;;;;;4996977;28;19909;-77
2021/12/11 12:11:13;;;;;;;;;;;2.80;99.90;;;;;;5014375;28;20273;-77
2021/12/11 12:13:39;;;;;;;;;;;2.90;99.90;;;;;;5014336;28;19924;-77
2021/12/11 12:16:06;;;;;;;;;;;3.00;99.90;;;;;;5014107;28;19905;-77
2021/12/11 12:18:32;;;;;;;;;;;3.00;99.90;;;;;;4996928;28;19913;-77
2021/12/11 12:20:59;;;;;;;;;;;3.00;99.90;;;;;;5014205;28;19905;-77
2021/12/11 12:23:31;;;;;;;;;;;3.00;99.90;;;;;;5014024;28;19913;-78
2021/12/11 12:25:57;;;;;;;;;;;2.90;99.90;;;;;;4980059;28;19955;-77
2021/12/11 12:28:23;;;;;;;;;;;2.70;99.90;;;;;;5014083;28;19906;-78
2021/12/11 12:30:51;;;;;;;;;;;2.90;99.90;;;;;;5013968;28;20289;-77
2021/12/11 12:33:17;;;;;;;;;;;2.90;99.90;;;;;;5013956;28;20277;-78
2021/12/11 12:35:44;;;;;;;;;;;2.90;99.90;;;;;;5013490;28;19913;-79
2021/12/11 12:38:12;;;;;;;;;;;3.10;99.90;;;;;;5018238;28;19905;-77
2021/12/11 12:40:41;;;;;;;;;;;3.00;99.90;;;;;;5032109;28;20003;-77
2021/12/11 12:43:42;;;;;;;;;;;3.10;99.90;;;;;;5013842;28;20133;-77
2021/12/11 12:46:06;;;;;;;;;;;3.30;99.90;;;;;;5013400;28;19944;-77
2021/12/11 12:48:31;;;;;;;;;;;3.30;99.90;;;;;;5033182;28;19956;-79
2021/12/11 12:50:59;;;;;;;;;;;3.30;99.90;;;;;;5000032;28;19924;-77
2021/12/11 12:53:33;;;;;;;;;;;3.40;99.90;;;;;;5033192;28;19905;-77
2021/12/11 12:56:09;;;;;;;;;;;3.30;99.90;;;;;;5032897;28;20323;-77
2021/12/11 12:58:38;;;;;;;;;;;3.10;99.90;;;;;;5032154;28;19905;-77
2021/12/11 13:01:06;;;;;;;;;;;3.30;99.90;;;;;;5032601;28;20360;-77
2021/12/11 13:03:34;;;;;;;;;;;3.30;99.90;;;;;;5015084;28;20368;-77
2021/12/11 13:06:09;;;;;;;;;;;3.30;99.90;;;;;;5032572;28;20420;-77
2021/12/11 13:08:46;;;;;;;;;;;3.30;99.90;;;;;;5032777;28;20285;-77
2021/12/11 13:11:16;;;;;;;;;;;3.20;99.90;;;;;;5015211;28;20289;-77
2021/12/11 13:13:42;;;;;;;;;;;3.10;99.90;;;;;;5032815;28;19909;-77
2021/12/11 13:16:10;;;;;;;;;;;3.10;99.90;;;;;;5014806;28;19955;-77
2021/12/11 13:18:38;;;;;;;;;;;3.20;99.90;;;;;;5032572;28;19940;-77
2021/12/11 13:21:15;;;;;;;;;;;3.00;99.90;;;;;;5032595;28;19996;-76
2021/12/11 13:23:42;;;;;;;;;;;2.90;99.90;;;;;;5032380;28;19913;-77
2021/12/11 13:26:09;;;;;;;;;;;2.90;99.90;;;;;;5014631;28;19909;-76
2021/12/11 13:28:37;;;;;;;;;;;2.80;99.90;;;;;;5032475;28;19905;-78
2021/12/11 13:31:09;;;;;;;;;;;2.90;99.90;;;;;;5014715;28;19905;-77
2021/12/11 13:33:34;;;;;;;;;;;2.70;99.90;;;;;;5032442;28;19905;-77
2021/12/11 13:36:00;;;;;;;;;;;2.70;99.90;;;;;;5032316;28;20432;-78
2021/12/11 13:38:28;;;;;;;;;;;2.80;99.90;;;;;;5014701;28;19905;-77
2021/12/11 13:40:57;;;;;;;;;;;2.80;99.90;;;;;;5032261;28;19911;-77
2021/12/11 13:43:23;;;;;;;;;;;2.90;99.90;;;;;;5014729;28;20375;-77
2021/12/11 13:45:55;;;;;;;;;;;3.00;99.90;;;;;;5032133;28;19937;-77
2021/12/11 13:48:22;;;;;;;;;;;2.80;99.90;;;;;;5014925;28;19988;-78
2021/12/11 13:50:50;;;;;;;;;;;2.70;99.90;;;;;;5032276;28;19909;-77
2021/12/11 13:53:16;;;;;;;;;;;2.40;99.90;;;;;;5032401;28;19905;-77
2021/12/11 13:55:41;;;;;;;;;;;2.40;99.90;;;;;;5014563;28;20317;-78
2021/12/11 13:58:08;;;;;;;;;;;2.50;99.90;;;;;;5032277;28;20278;-77
2021/12/11 14:00:39;;;;;;;;;;;2.50;99.90;;;;;;5031826;28;19905;-80
2021/12/11 14:03:05;;;;;;;;;;;2.50;99.90;;;;;;5032421;28;19995;-76
2021/12/11 14:05:33;;;;;;;;;;;2.70;99.90;;;;;;5032025;28;19995;-78
2021/12/11 14:08:03;;;;;;;;;;;2.60;99.90;;;;;;5014441;28;19905;-78
2021/12/11 14:10:32;;;;;;;;;;;2.40;99.90;;;;;;5035122;28;19905;-78
2021/12/11 14:12:59;;;;;;;;;;;2.50;99.90;;;;;;5036030;28;19959;-78
2021/12/11 14:15:25;;;;;;;;;;;2.50;99.90;;;;;;5035984;28;19905;-78
2021/12/11 14:17:51;;;;;;;;;;;2.50;99.90;;;;;;5035931;28;19905;-77
2021/12/11 14:20:18;;;;;;;;;;;2.80;99.90;;;;;;5036039;28;19909;-77
2021/12/11 14:22:44;;;;;;;;;;;3.00;99.90;;;;;;5035904;28;19905;-76
2021/12/11 14:25:11;;;;;;;;;;;2.90;99.90;;;;;;5035836;28;19947;-77
2021/12/11 14:27:37;;;;;;;;;;;2.90;99.90;;;;;;5035781;28;19905;-77
2021/12/11 14:30:04;;;;;;;;;;;2.90;99.90;;;;;;5035866;28;20276;-76
2021/12/11 14:32:34;;;;;;;;;;;3.00;99.90;;;;;;5001700;28;19905;-77
2021/12/11 14:35:01;;;;;;;;;;;2.90;99.90;;;;;;5035770;28;19909;-77
2021/12/11 14:37:27;;;;;;;;;;;2.90;99.90;;;;;;5035463;28;19958;-78
2021/12/11 14:39:52;;;;;;;;;;;2.90;99.90;;;;;;5035691;28;19924;-78
2021/12/11 14:42:21;;;;;;;;;;;2.80;99.90;;;;;;5035282;28;19913;-77
2021/12/11 14:44:47;;;;;;;;;;;2.60;99.90;;;;;;5035410;28;19908;-77
2021/12/11 14:47:13;;;;;;;;;;;2.60;99.90;;;;;;5035382;28;19928;-77
2021/12/11 14:49:41;;;;;;;;;;;2.40;99.90;;;;;;5035419;28;20349;-77
2021/12/11 14:52:08;;;;;;;;;;;2.40;99.90;;;;;;5035209;28;19909;-76
2021/12/11 14:54:34;;;;;;;;;;;2.40;99.90;;;;;;5017656;28;20391;-77